createdAt,value
2019-02-11T00:01:46.552Z,5.20
2019-02-11T00:04:15.812Z,6.50
2019-02-11T00:06:45.137Z,4.57
2019-02-11T00:09:14.502Z,6.07
2019-02-11T00:11:43.874Z,4.67
2019-02-11T00:14:13.155Z,4.37
2019-02-11T00:16:42.632Z,7.10
2019-02-11T00:19:11.940Z,7.73
2019-02-11T00:21:41.353Z,4.10
2019-02-11T00:24:10.658Z,7.70
2019-02-11T00:26:39.978Z,5.07
2019-02-11T00:29:09.347Z,6.83
2019-02-11T00:31:38.943Z,9.87
2019-02-11T00:34:08.207Z,5.43
2019-02-11T00:36:37.532Z,4.93
2019-02-11T00:39:07.899Z,4.90
2019-02-11T00:41:37.203Z,4.73
2019-02-11T00:44:06.486Z,4.33
2019-02-11T00:46:35.856Z,4.50
2019-02-11T00:49:05.257Z,4.83
2019-02-11T00:51:34.538Z,6.43
2019-02-11T00:54:03.833Z,3.27
2019-02-11T00:56:33.218Z,6.30
2019-02-11T00:59:02.529Z,5.53
2019-02-11T01:01:32.014Z,5.27
2019-02-11T01:04:01.509Z,6.07
2019-02-11T01:06:30.843Z,4.53
2019-02-11T01:09:00.369Z,6.00
2019-02-11T01:11:29.680Z,4.60
2019-02-11T01:13:59.041Z,4.97
2019-02-11T01:16:28.491Z,4.23
2019-02-11T01:18:57.775Z,8.47
2019-02-11T01:21:27.112Z,6.20
2019-02-11T01:23:56.625Z,5.63
2019-02-11T01:26:25.903Z,5.90
2019-02-11T01:28:55.198Z,8.10
2019-02-11T01:31:24.636Z,6.03
2019-02-11T01:33:53.958Z,6.77
2019-02-11T01:36:23.243Z,6.90
2019-02-11T01:38:52.807Z,8.17
2019-02-11T01:41:22.132Z,7.67
2019-02-11T01:43:52.467Z,8.27
2019-02-11T01:46:21.961Z,10.47
2019-02-11T01:48:51.408Z,7.77
2019-02-11T01:51:20.745Z,6.60
2019-02-11T01:53:50.305Z,8.23
2019-02-11T01:56:19.595Z,8.60
2019-02-11T01:58:48.926Z,8.47
2019-02-11T02:01:18.380Z,8.20
2019-02-11T02:03:47.674Z,8.17
2019-02-11T02:06:16.981Z,8.10
2019-02-11T02:08:46.449Z,8.30
2019-02-11T02:11:15.721Z,7.50
2019-02-11T02:13:45.221Z,7.80
2019-02-11T02:16:14.801Z,10.50
2019-02-11T02:18:44.070Z,9.03
2019-02-11T02:21:13.331Z,8.53
2019-02-11T02:23:42.897Z,7.93
2019-02-11T02:26:12.193Z,10.10
2019-02-11T02:28:41.482Z,7.70
2019-02-11T02:31:10.979Z,7.83
2019-02-11T02:33:40.240Z,7.93
2019-02-11T02:36:09.531Z,7.20
2019-02-11T02:38:38.955Z,11.03
2019-02-11T02:41:08.358Z,8.30
2019-02-11T02:43:37.622Z,10.43
2019-02-11T02:46:07.081Z,14.50
2019-02-11T02:48:36.402Z,12.70
2019-02-11T02:51:05.655Z,12.87
2019-02-11T02:53:35.042Z,11.73
2019-02-11T02:56:04.348Z,12.97
2019-02-11T02:58:33.636Z,12.77
2019-02-11T03:01:03.167Z,14.57
2019-02-11T03:03:32.494Z,13.17
2019-02-11T03:06:01.776Z,15.47
2019-02-11T03:08:31.310Z,15.43
2019-02-11T03:11:00.619Z,13.13
2019-02-11T03:13:29.875Z,12.83
2019-02-11T03:15:59.185Z,12.20
2019-02-11T03:18:28.486Z,13.37
2019-02-11T03:20:57.768Z,11.90
2019-02-11T03:23:27.314Z,13.33
2019-02-11T03:25:56.621Z,12.90
2019-02-11T03:28:25.946Z,11.23
2019-02-11T03:30:55.510Z,15.03
2019-02-11T03:33:24.765Z,10.50
2019-02-11T03:35:54.096Z,11.23
2019-02-11T03:38:23.615Z,13.23
2019-02-11T03:40:52.900Z,13.13
2019-02-11T03:43:22.165Z,10.13
2019-02-11T03:45:51.544Z,12.93
2019-02-11T03:48:20.937Z,13.57
2019-02-11T03:50:50.318Z,15.47
2019-02-11T03:53:19.934Z,13.57
2019-02-11T03:55:49.283Z,16.57
2019-02-11T03:58:18.616Z,12.87
2019-02-11T04:00:48.093Z,13.43
2019-02-11T04:03:17.377Z,19.83
2019-02-11T04:05:46.673Z,18.43
2019-02-11T04:08:16.178Z,17.13
2019-02-11T04:10:45.478Z,19.63
2019-02-11T04:13:14.775Z,18.93
2019-02-11T04:15:44.342Z,18.13
2019-02-11T04:18:13.702Z,22.47
2019-02-11T04:20:42.982Z,20.27
2019-02-11T04:23:12.311Z,23.50
2019-02-11T04:25:41.616Z,19.20
2019-02-11T04:28:10.904Z,20.07
2019-02-11T04:30:40.270Z,23.23
2019-02-11T04:33:09.607Z,28.73
2019-02-11T04:35:38.934Z,25.07
2019-02-11T04:38:08.223Z,25.90
2019-02-11T04:40:37.575Z,31.93
2019-02-11T04:43:06.878Z,28.03
2019-02-11T04:45:36.330Z,28.83
2019-02-11T04:48:05.622Z,26.77
2019-02-11T04:50:35.026Z,25.67
2019-02-11T04:53:04.552Z,27.63
2019-02-11T04:55:33.879Z,34.00
2019-02-11T04:58:03.152Z,24.97
2019-02-11T05:00:32.496Z,26.17
2019-02-11T05:03:01.786Z,29.63
2019-02-11T05:05:31.276Z,36.23
2019-02-11T05:08:00.785Z,25.60
2019-02-11T05:10:30.096Z,37.50
2019-02-11T05:12:59.416Z,34.93
2019-02-11T05:15:29.005Z,29.53
2019-02-11T05:17:58.265Z,26.60
2019-02-11T05:20:27.618Z,26.37
2019-02-11T05:22:57.169Z,32.30
2019-02-11T05:25:26.527Z,22.70
2019-02-11T05:27:55.881Z,26.03
2019-02-11T05:30:25.419Z,30.23
2019-02-11T05:32:54.693Z,37.17
2019-02-11T05:35:23.989Z,36.07
2019-02-11T05:37:53.492Z,25.43
2019-02-11T05:40:22.843Z,30.63
2019-02-11T05:42:52.094Z,35.07
2019-02-11T05:45:21.457Z,28.67
2019-02-11T05:47:50.802Z,21.00
2019-02-11T05:50:20.092Z,23.87
2019-02-11T05:52:49.483Z,26.73
2019-02-11T05:55:18.776Z,26.93
2019-02-11T05:57:48.041Z,22.17
2019-02-11T06:00:18.589Z,22.57
2019-02-11T06:02:47.929Z,25.80
2019-02-11T06:05:17.221Z,27.77
2019-02-11T06:07:46.478Z,31.30
2019-02-11T06:10:15.776Z,21.73
2019-02-11T06:12:45.137Z,21.60
2019-02-11T06:15:14.514Z,31.50
2019-02-11T06:17:43.804Z,27.00
2019-02-11T06:20:13.083Z,28.57
2019-02-11T06:22:42.553Z,33.63
2019-02-11T06:25:11.848Z,35.73
2019-02-11T06:27:41.140Z,30.27
2019-02-11T06:30:11.120Z,44.93
2019-02-11T06:32:40.430Z,34.33
2019-02-11T06:35:10.108Z,29.47
2019-02-11T06:37:39.602Z,20.23
2019-02-11T06:40:09.508Z,28.67
2019-02-11T06:42:38.830Z,33.43
2019-02-11T06:45:13.295Z,25.30
2019-02-11T06:47:40.027Z,22.40
2019-02-11T06:50:10.096Z,34.70
2019-02-11T06:52:39.658Z,25.43
2019-02-11T06:55:09.980Z,28.87
2019-02-11T06:57:39.434Z,20.57
2019-02-11T07:00:10.733Z,38.33
2019-02-11T07:02:40.165Z,29.20
2019-02-11T07:05:09.566Z,23.57
2019-02-11T07:07:39.155Z,26.83
2019-02-11T07:10:09.428Z,29.90
2019-02-11T07:12:38.731Z,24.43
2019-02-11T07:15:09.927Z,18.50
2019-02-11T07:17:39.270Z,27.80
2019-02-11T07:20:08.796Z,31.30
2019-02-11T07:22:38.271Z,24.27
2019-02-11T07:25:07.898Z,32.73
2019-02-11T07:27:37.228Z,27.10
2019-02-11T07:30:07.197Z,32.60
2019-02-11T07:32:36.459Z,23.97
2019-02-11T07:35:06.054Z,26.67
2019-02-11T07:37:35.563Z,35.33
2019-02-11T07:40:05.048Z,24.70
2019-02-11T07:42:39.599Z,14.20
2019-02-11T07:45:29.860Z,18.23
2019-02-11T07:47:54.582Z,20.43
2019-02-11T07:50:23.872Z,21.77
2019-02-11T07:52:53.199Z,22.17
2019-02-11T07:55:22.592Z,21.27
2019-02-11T07:57:51.872Z,22.67
2019-02-11T08:00:21.197Z,17.93
2019-02-11T08:02:50.595Z,16.60
2019-02-11T08:05:19.884Z,16.73
2019-02-11T08:07:49.237Z,17.97
2019-02-11T08:10:18.591Z,14.53
2019-02-11T08:12:47.876Z,11.97
2019-02-11T08:15:17.231Z,16.00
2019-02-11T08:17:46.936Z,9.90
2019-02-11T08:20:16.214Z,15.97
2019-02-11T08:22:45.494Z,16.60
2019-02-11T08:25:15.108Z,13.00
2019-02-11T08:27:44.396Z,16.37
2019-02-11T08:30:13.827Z,17.23
2019-02-11T08:32:43.415Z,22.27
2019-02-11T08:35:12.700Z,16.70
2019-02-11T08:37:41.974Z,16.70
2019-02-11T08:40:11.377Z,15.43
2019-02-11T08:42:40.725Z,15.03
2019-02-11T08:45:10.182Z,14.20
2019-02-11T08:47:39.526Z,12.90
2019-02-11T08:50:08.932Z,16.00
2019-02-11T08:52:38.320Z,21.33
2019-02-11T08:55:07.796Z,13.63
2019-02-11T08:57:37.056Z,21.00
2019-02-11T09:00:06.819Z,16.27
2019-02-11T09:02:36.311Z,14.57
2019-02-11T09:05:06.802Z,13.27
2019-02-11T09:07:36.157Z,12.80
2019-02-11T09:10:05.796Z,15.77
2019-02-11T09:12:35.066Z,13.83
2019-02-11T09:15:05.420Z,17.47
2019-02-11T09:17:34.795Z,13.37
2019-02-11T09:20:04.110Z,19.90
2019-02-11T09:22:33.397Z,17.80
2019-02-11T09:25:02.945Z,17.27
2019-02-11T09:27:32.237Z,10.20
2019-02-11T09:30:02.494Z,17.27
2019-02-11T09:32:31.777Z,16.33
2019-02-11T09:35:01.051Z,16.00
2019-02-11T09:37:30.383Z,19.10
2019-02-11T09:39:59.701Z,12.03
2019-02-11T09:42:29.042Z,11.00
2019-02-11T09:44:58.361Z,15.90
2019-02-11T09:47:27.774Z,10.53
2019-02-11T09:50:23.927Z,9.37
2019-02-11T09:52:53.379Z,15.43
2019-02-11T09:55:30.126Z,15.53
2019-02-11T09:57:59.479Z,8.90
2019-02-11T10:00:28.744Z,10.10
2019-02-11T10:02:58.042Z,14.00
2019-02-11T10:05:27.367Z,7.70
2019-02-11T10:07:56.647Z,11.20
2019-02-11T10:10:25.927Z,10.83
2019-02-11T10:12:55.409Z,9.03
2019-02-11T10:15:24.765Z,9.13
2019-02-11T10:17:54.061Z,10.10
2019-02-11T10:20:23.476Z,7.97
2019-02-11T10:22:52.808Z,7.13
2019-02-11T10:25:23.885Z,11.00
2019-02-11T10:27:54.514Z,14.00
2019-02-11T10:30:23.807Z,9.57
2019-02-11T10:32:53.219Z,12.83
2019-02-11T10:35:22.622Z,7.73
2019-02-11T10:37:51.974Z,10.13
2019-02-11T10:40:21.446Z,11.43
2019-02-11T10:42:50.802Z,7.57
2019-02-11T10:45:20.078Z,9.27
2019-02-11T10:47:49.487Z,9.47
2019-02-11T10:50:18.794Z,9.80
2019-02-11T10:52:48.242Z,7.30
2019-02-11T10:55:17.818Z,7.37
2019-02-11T10:57:47.128Z,10.90
2019-02-11T11:00:19.070Z,6.57
2019-02-11T11:02:48.420Z,9.10
2019-02-11T11:05:17.921Z,7.37
2019-02-11T11:07:47.372Z,9.27
2019-02-11T11:10:19.834Z,6.10
2019-02-11T11:12:49.252Z,9.80
2019-02-11T11:15:18.911Z,8.70
2019-02-11T11:17:48.344Z,8.83
2019-02-11T11:20:17.969Z,5.37
2019-02-11T11:22:47.347Z,6.80
2019-02-11T11:25:17.670Z,10.23
2019-02-11T11:27:47.065Z,8.37
2019-02-11T11:30:16.683Z,8.47
2019-02-11T11:32:46.202Z,7.37
2019-02-11T11:35:16.025Z,8.50
2019-02-11T11:37:45.318Z,9.27
2019-02-11T11:40:16.431Z,7.97
2019-02-11T11:42:45.860Z,6.33
2019-02-11T11:45:16.699Z,7.67
2019-02-11T11:47:46.209Z,8.20
2019-02-11T11:50:16.478Z,5.20
2019-02-11T11:52:45.879Z,9.47
2019-02-11T11:55:15.729Z,6.57
2019-02-11T11:57:45.100Z,6.10
2019-02-11T12:00:20.662Z,6.37
2019-02-11T12:03:01.652Z,6.97
2019-02-11T12:05:21.527Z,8.50
2019-02-11T12:07:51.167Z,6.10
2019-02-11T12:10:20.567Z,7.40
2019-02-11T12:12:49.888Z,10.47
2019-02-11T12:15:21.367Z,5.30
2019-02-11T12:17:50.878Z,7.03
2019-02-11T12:20:20.181Z,6.83
2019-02-11T12:22:49.756Z,4.03
2019-02-11T12:25:19.372Z,4.47
2019-02-11T12:27:48.662Z,3.10
2019-02-11T12:30:20.390Z,4.87
2019-02-11T12:32:49.728Z,4.57
2019-02-11T12:35:18.975Z,5.17
2019-02-11T12:37:48.243Z,3.87
2019-02-11T12:40:17.802Z,4.63
2019-02-11T12:42:47.043Z,4.43
2019-02-11T12:45:17.958Z,3.60
2019-02-11T12:47:47.218Z,1.93
2019-02-11T12:50:17.041Z,2.80
2019-02-11T12:52:46.480Z,1.87
2019-02-11T12:55:15.847Z,2.93
2019-02-11T12:57:45.101Z,2.13
2019-02-11T13:00:17.664Z,2.80
2019-02-11T13:02:47.470Z,2.17
2019-02-11T13:05:21.424Z,1.77
2019-02-11T13:07:48.061Z,2.03
2019-02-11T13:10:18.511Z,3.53
2019-02-11T13:12:47.806Z,2.83
2019-02-11T13:15:41.913Z,1.63
2019-02-11T13:17:48.918Z,1.80
2019-02-11T13:20:18.313Z,1.87
2019-02-11T13:22:47.516Z,1.33
2019-02-11T13:25:17.367Z,1.20
2019-02-11T13:27:46.716Z,0.90
2019-02-11T13:30:17.497Z,1.13
2019-02-11T13:32:46.808Z,0.93
2019-02-11T13:35:16.241Z,0.90
2019-02-11T13:37:45.662Z,0.87
2019-02-11T13:40:15.295Z,0.60
2019-02-11T13:42:44.595Z,0.70
2019-02-11T13:45:15.804Z,1.13
2019-02-11T13:47:57.174Z,0.97
2019-02-11T13:50:21.767Z,1.47
2019-02-11T13:52:51.914Z,0.67
2019-02-11T13:55:21.377Z,1.10
2019-02-11T13:57:51.398Z,0.50
2019-02-11T14:00:35.824Z,0.40
2019-02-11T14:03:06.469Z,1.10
2019-02-11T14:05:35.855Z,0.50
2019-02-11T14:08:06.193Z,0.40
2019-02-11T14:10:35.808Z,2.10
2019-02-11T14:13:06.079Z,0.67
2019-02-11T14:15:35.448Z,1.87
2019-02-11T14:18:15.782Z,0.30
2019-02-11T14:20:49.533Z,0.60
2019-02-11T14:23:16.681Z,1.07
2019-02-11T14:25:47.493Z,0.57
2019-02-11T14:28:17.204Z,1.03
2019-02-11T14:30:46.565Z,0.70
2019-02-11T14:33:15.971Z,1.00
2019-02-11T14:35:45.586Z,0.40
2019-02-11T14:38:14.832Z,1.23
2019-02-11T14:40:44.249Z,0.40
2019-02-11T14:43:13.627Z,0.50
2019-02-11T14:45:42.967Z,0.70
2019-02-11T14:48:27.221Z,0.73
2019-02-11T14:50:43.615Z,7.40
2019-02-11T14:53:12.972Z,1.67
2019-02-11T14:55:42.225Z,0.50
2019-02-11T14:58:11.526Z,0.50
2019-02-11T15:00:40.987Z,0.40
2019-02-11T15:03:10.375Z,0.70
2019-02-11T15:05:39.744Z,0.40
2019-02-11T15:08:09.255Z,0.50
2019-02-11T15:10:38.672Z,0.40
2019-02-11T15:13:07.956Z,0.50
2019-02-11T15:15:37.859Z,1.17
2019-02-11T15:18:07.161Z,0.80
2019-02-11T15:20:36.469Z,4.00
2019-02-11T15:23:05.823Z,1.80
2019-02-11T15:25:35.137Z,0.67
2019-02-11T15:28:04.469Z,0.60
2019-02-11T15:30:33.739Z,4.47
2019-02-11T15:33:03.048Z,0.40
2019-02-11T15:35:32.448Z,0.40
2019-02-11T15:38:01.805Z,0.87
2019-02-11T15:40:31.197Z,0.40
2019-02-11T15:43:00.507Z,2.37
2019-02-11T15:45:29.904Z,1.00
2019-02-11T15:47:59.169Z,2.00
2019-02-11T15:50:28.437Z,0.87
2019-02-11T15:52:59.087Z,0.57
2019-02-11T15:55:28.434Z,2.37
2019-02-11T15:57:57.726Z,0.63
2019-02-11T16:00:27.094Z,2.27
2019-02-11T16:02:56.404Z,1.97
2019-02-11T16:05:25.640Z,2.10
2019-02-11T16:07:54.946Z,0.63
2019-02-11T16:10:25.703Z,0.60
2019-02-11T16:12:55.036Z,2.03
2019-02-11T16:15:24.419Z,1.50
2019-02-11T16:17:53.764Z,1.47
2019-02-11T16:20:23.123Z,6.57
2019-02-11T16:22:52.390Z,1.50
2019-02-11T16:25:21.728Z,1.23
2019-02-11T16:27:51.032Z,3.63
2019-02-11T16:30:20.488Z,1.73
2019-02-11T16:32:49.855Z,3.20
2019-02-11T16:35:19.181Z,2.57
2019-02-11T16:37:49.156Z,2.63
2019-02-11T16:40:20.722Z,1.43
2019-02-11T16:42:50.032Z,0.90
2019-02-11T16:45:19.286Z,5.53
2019-02-11T16:47:48.584Z,2.20
2019-02-11T16:50:17.986Z,1.10
2019-02-11T16:52:47.326Z,4.63
2019-02-11T16:55:16.577Z,2.23
2019-02-11T16:57:45.893Z,2.00
2019-02-11T17:00:16.557Z,1.13
2019-02-11T17:02:45.903Z,1.13
2019-02-11T17:05:15.326Z,1.10
2019-02-11T17:07:44.683Z,1.07
2019-02-11T17:10:14.402Z,5.77
2019-02-11T17:12:43.696Z,3.17
2019-02-11T17:15:14.916Z,2.57
2019-02-11T17:17:44.526Z,2.93
2019-02-11T17:20:14.371Z,1.07
2019-02-11T17:22:43.674Z,2.00
2019-02-11T17:25:13.610Z,2.93
2019-02-11T17:27:42.977Z,1.10
2019-02-11T17:30:15.144Z,3.60
2019-02-11T17:32:44.455Z,2.30
2019-02-11T17:35:13.737Z,3.47
2019-02-11T17:37:43.111Z,3.57
2019-02-11T17:40:13.091Z,3.03
2019-02-11T17:42:42.481Z,4.47
2019-02-11T17:45:18.229Z,0.97
2019-02-11T17:47:47.526Z,1.47
2019-02-11T17:50:16.853Z,4.57
2019-02-11T17:52:46.282Z,3.03
2019-02-11T17:55:15.577Z,6.03
2019-02-11T17:57:44.930Z,3.17
2019-02-11T18:00:24.311Z,8.67
2019-02-11T18:02:53.703Z,3.63
2019-02-11T18:05:23.105Z,2.37
2019-02-11T18:07:52.603Z,3.33
2019-02-11T18:10:21.915Z,4.03
2019-02-11T18:12:51.214Z,5.67
2019-02-11T18:15:20.738Z,5.83
2019-02-11T18:17:50.106Z,7.00
2019-02-11T18:20:19.458Z,7.93
2019-02-11T18:22:48.975Z,8.40
2019-02-11T18:25:18.312Z,8.40
2019-02-11T18:27:47.611Z,5.93
2019-02-11T18:30:17.549Z,2.23
2019-02-11T18:32:46.971Z,4.47
2019-02-11T18:35:16.364Z,4.23
2019-02-11T18:37:45.975Z,8.10
2019-02-11T18:40:15.559Z,3.37
2019-02-11T18:42:44.874Z,11.50
2019-02-11T18:45:14.522Z,3.77
2019-02-11T18:47:43.905Z,9.40
2019-02-11T18:50:14.136Z,3.80
2019-02-11T18:52:43.743Z,5.17
2019-02-11T18:55:13.648Z,2.37
2019-02-11T18:57:43.018Z,2.23
2019-02-11T19:00:14.342Z,6.83
2019-02-11T19:02:43.712Z,4.53
2019-02-11T19:05:13.205Z,7.23
2019-02-11T19:07:42.704Z,5.47
2019-02-11T19:10:12.654Z,5.60
2019-02-11T19:12:42.004Z,1.47
2019-02-11T19:15:12.417Z,4.53
2019-02-11T19:17:41.791Z,1.17
2019-02-11T19:20:12.317Z,5.07
2019-02-11T19:22:41.881Z,7.23
2019-02-11T19:25:11.428Z,3.00
2019-02-11T19:27:40.778Z,6.37
2019-02-11T19:30:15.799Z,5.40
2019-02-11T19:32:45.087Z,4.60
2019-02-11T19:35:14.339Z,3.60
2019-02-11T19:37:43.805Z,4.43
2019-02-11T19:40:13.832Z,3.63
2019-02-11T19:42:43.154Z,5.73
2019-02-11T19:45:14.510Z,4.80
2019-02-11T19:47:43.960Z,5.57
2019-02-11T19:50:14.465Z,8.73
2019-02-11T19:52:43.999Z,7.43
2019-02-11T19:55:13.772Z,10.30
2019-02-11T19:57:43.089Z,8.67
2019-02-11T20:00:20.050Z,6.63
2019-02-11T20:02:49.778Z,7.57
2019-02-11T20:05:19.185Z,10.67
2019-02-11T20:07:48.765Z,7.20
2019-02-11T20:10:18.488Z,7.73
2019-02-11T20:12:48.108Z,8.93
2019-02-11T20:15:19.382Z,9.10
2019-02-11T20:17:48.634Z,9.70
2019-02-11T20:20:19.787Z,11.43
2019-02-11T20:22:49.132Z,7.20
2019-02-11T20:25:18.466Z,9.20
2019-02-11T20:27:48.106Z,4.97
2019-02-11T20:30:19.071Z,10.20
2019-02-11T20:32:48.415Z,11.43
2019-02-11T20:35:17.922Z,9.40
2019-02-11T20:37:47.244Z,8.40
2019-02-11T20:40:18.292Z,8.77
2019-02-11T20:42:47.931Z,5.93
2019-02-11T20:45:22.566Z,9.73
2019-02-11T20:47:52.091Z,9.63
2019-02-11T20:50:21.457Z,12.33
2019-02-11T20:52:50.744Z,10.53
2019-02-11T20:55:20.204Z,6.73
2019-02-11T20:57:49.883Z,8.47
2019-02-11T21:00:20.510Z,6.63
2019-02-11T21:02:49.993Z,6.63
2019-02-11T21:05:19.516Z,5.97
2019-02-11T21:07:48.856Z,9.83
2019-02-11T21:10:18.477Z,9.80
2019-02-11T21:12:48.003Z,12.33
2019-02-11T21:15:17.273Z,5.13
2019-02-11T21:17:46.557Z,9.83
2019-02-11T21:20:21.148Z,8.23
2019-02-11T21:22:50.592Z,11.20
2019-02-11T21:25:19.927Z,4.37
2019-02-11T21:27:49.475Z,9.00
2019-02-11T21:30:18.780Z,7.43
2019-02-11T21:32:48.075Z,10.53
2019-02-11T21:35:17.456Z,9.70
2019-02-11T21:37:46.964Z,9.03
2019-02-11T21:40:16.264Z,11.87
2019-02-11T21:42:45.832Z,2.30
2019-02-11T21:45:15.463Z,10.73
2019-02-11T21:47:44.766Z,8.77
2019-02-11T21:50:15.192Z,10.63
2019-02-11T21:52:44.494Z,7.80
2019-02-11T21:55:14.095Z,8.77
2019-02-11T21:57:43.354Z,11.97
2019-02-11T22:00:15.051Z,12.87
2019-02-11T22:02:44.595Z,11.10
2019-02-11T22:05:14.093Z,7.60
2019-02-11T22:07:43.347Z,7.70
2019-02-11T22:10:14.336Z,10.97
2019-02-11T22:12:43.762Z,11.40
2019-02-11T22:15:14.147Z,8.30
2019-02-11T22:17:43.587Z,8.10
2019-02-11T22:20:14.984Z,12.63
2019-02-11T22:22:44.391Z,6.70
2019-02-11T22:25:13.989Z,6.37
2019-02-11T22:27:43.314Z,11.17
2019-02-11T22:30:14.800Z,13.80
2019-02-11T22:32:44.059Z,7.90
2019-02-11T22:35:13.490Z,10.13
2019-02-11T22:37:42.895Z,6.43
2019-02-11T22:40:12.898Z,8.27
2019-02-11T22:42:42.150Z,6.40
2019-02-11T22:45:14.149Z,8.93
2019-02-11T22:47:43.412Z,5.13
2019-02-11T22:50:13.101Z,6.23
2019-02-11T22:52:42.727Z,6.67
2019-02-11T22:55:12.100Z,8.53
2019-02-11T22:57:41.408Z,6.23
2019-02-11T23:00:40.162Z,10.03
2019-02-11T23:03:09.505Z,17.37
2019-02-11T23:05:38.917Z,10.10
2019-02-11T23:08:08.417Z,11.57
2019-02-11T23:10:37.737Z,13.00
2019-02-11T23:13:07.058Z,10.37
2019-02-11T23:15:36.582Z,17.53
2019-02-11T23:18:05.942Z,4.80
2019-02-11T23:20:35.251Z,11.10
2019-02-11T23:23:04.604Z,11.50
2019-02-11T23:25:33.897Z,6.63
2019-02-11T23:28:03.253Z,7.77
2019-02-11T23:30:32.863Z,7.20
2019-02-11T23:33:02.089Z,5.30
2019-02-11T23:35:31.390Z,8.63
2019-02-11T23:38:00.879Z,9.90
2019-02-11T23:40:30.129Z,10.57
2019-02-11T23:42:59.984Z,15.97
2019-02-11T23:45:29.558Z,12.07
2019-02-11T23:47:58.868Z,6.97
2019-02-11T23:50:28.284Z,7.57
2019-02-11T23:52:57.830Z,10.43
2019-02-11T23:55:27.341Z,11.93
2019-02-11T23:57:56.650Z,8.53
